Time;durP1;ratioP1;P1;durP2;ratioP2;P2;SDS_P1;SDS_P2;PMS_P1;PMS_P2;Temp;Humidity;BMP_temperature;BMP_pressure;BME280_temperature;BME280_humidity;BME280_pressure;Samples;Min_cycle;Max_cycle;Signal;HPM_P1;HPM_P2
2022/05/20 00:01:44;;;;;;;3.88;1.38;;;23.50;84.60;;;;;;6215545;23;19999;-59
2022/05/20 00:04:10;;;;;;;4.50;1.75;;;;;;;;;;6215283;23;20009;-59
2022/05/20 00:06:36;;;;;;;3.67;1.77;;;;;;;;;;6215472;23;19993;-60
2022/05/20 00:09:02;;;;;;;3.10;1.70;;;24.00;56.30;;;;;;6215501;23;20005;-59
2022/05/20 00:11:28;;;;;;;3.92;1.55;;;24.20;61.20;;;;;;6215539;23;19997;-59
2022/05/20 00:13:54;;;;;;;4.10;1.38;;;;;;;;;;6215244;23;20007;-59
2022/05/20 00:16:21;;;;;;;2.38;1.70;;;;;;;;;;6215102;23;20008;-46
2022/05/20 00:18:47;;;;;;;4.80;1.90;;;;;;;;;;6215300;23;20012;-46
2022/05/20 00:21:13;;;;;;;3.22;1.40;;;;;;;;;;6215440;23;20007;-46
2022/05/20 00:23:39;;;;;;;2.30;1.67;;;24.20;90.80;;;;;;6215393;23;20059;-47
2022/05/20 00:26:05;;;;;;;2.17;1.40;;;;;;;;;;6215072;23;20339;-47
2022/05/20 00:28:30;;;;;;;3.42;1.52;;;23.90;81.90;;;;;;6215328;23;19992;-46
2022/05/20 00:31:00;;;;;;;3.53;1.27;;;24.20;62.30;;;;;;6215007;23;20004;-47
2022/05/20 00:33:27;;;;;;;3.63;1.52;;;23.90;56.40;;;;;;6215438;23;20003;-48
2022/05/20 00:35:53;;;;;;;2.20;1.25;;;24.20;90.70;;;;;;6215349;23;20011;-47
2022/05/20 00:38:19;;;;;;;2.97;1.65;;;24.20;90.80;;;;;;6215164;23;20008;-47
2022/05/20 00:40:46;;;;;;;3.10;1.63;;;23.70;90.60;;;;;;6224995;23;20075;-46
2022/05/20 00:43:24;;;;;;;2.22;1.38;;;24.20;62.70;;;;;;6215228;23;20088;-47
2022/05/20 00:45:50;;;;;;;2.30;1.80;;;23.80;90.60;;;;;;6214790;23;20437;-47
2022/05/20 00:48:16;;;;;;;3.22;1.80;;;;;;;;;;6215216;23;20000;-46
2022/05/20 00:50:47;;;;;;;2.70;1.73;;;23.90;56.50;;;;;;6214782;23;20006;-48
2022/05/20 00:53:16;;;;;;;3.80;1.63;;;24.20;90.80;;;;;;6215304;23;19996;-46
2022/05/20 00:55:43;;;;;;;2.17;1.55;;;23.90;90.90;;;;;;6215138;23;20024;-46
2022/05/20 00:58:18;;;;;;;2.63;1.63;;;23.90;90.70;;;;;;6215056;23;20029;-46
2022/05/20 01:00:51;;;;;;;2.40;1.60;;;24.10;90.90;;;;;;6215193;23;19993;-47
2022/05/20 01:03:19;;;;;;;2.47;1.60;;;23.90;56.80;;;;;;6214830;23;20020;-46
2022/05/20 01:05:48;;;;;;;1.67;1.40;;;23.40;90.60;;;;;;6215092;23;20012;-47
2022/05/20 01:08:18;;;;;;;2.92;1.30;;;24.00;61.80;;;;;;6215169;23;20047;-47
2022/05/20 01:10:44;;;;;;;4.22;1.67;;;;;;;;;;6215002;23;20000;-47
2022/05/20 01:13:13;;;;;;;2.30;1.75;;;23.90;56.80;;;;;;6214856;23;20020;-47
2022/05/20 01:15:38;;;;;;;2.13;1.42;;;24.10;65.50;;;;;;6214962;23;20004;-47
2022/05/20 01:18:04;;;;;;;4.07;1.73;;;;;;;;;;6214831;23;20004;-48
2022/05/20 01:20:37;;;;;;;1.90;1.20;;;23.80;56.80;;;;;;6224629;23;19996;-47
2022/05/20 01:23:19;;;;;;;2.90;1.48;;;23.60;68.20;;;;;;6214362;23;20071;-47
2022/05/20 01:25:48;;;;;;;2.72;1.38;;;23.60;90.80;;;;;;6214916;23;20001;-47
2022/05/20 01:28:16;;;;;;;2.25;1.33;;;23.80;56.30;;;;;;6214906;23;20001;-46
2022/05/20 01:30:46;;;;;;;3.10;1.67;;;23.80;57.00;;;;;;6214806;23;20325;-47
2022/05/20 01:33:46;;;;;;;3.78;1.75;;;23.70;91.10;;;;;;6214886;23;20055;-46
2022/05/20 01:36:15;;;;;;;3.08;1.88;;;23.80;57.10;;;;;;6188362;23;20332;-46
2022/05/20 01:38:41;;;;;;;1.98;1.42;;;23.90;91.00;;;;;;6214305;23;20015;-47
2022/05/20 01:41:11;;;;;;;3.60;1.70;;;23.80;57.30;;;;;;6214397;23;20421;-46
2022/05/20 01:44:10;;;;;;;2.10;1.50;;;23.90;82.40;;;;;;6214770;23;20000;-46
2022/05/20 01:46:41;;;;;;;2.67;1.58;;;23.80;55.10;;;;;;6214855;23;20267;-47
2022/05/20 01:49:19;;;;;;;2.15;1.52;;;23.60;91.00;;;;;;6224435;23;20441;-46
2022/05/20 01:52:12;;;;;;;2.25;1.38;;;23.60;82.80;;;;;;6214696;23;20005;-46
2022/05/20 01:55:05;;;;;;;5.55;1.55;;;23.70;91.30;;;;;;6214331;23;20000;-46
2022/05/20 01:57:31;;;;;;;5.72;2.00;;;23.80;81.50;;;;;;6224341;23;20001;-47
2022/05/20 02:00:07;;;;;;;2.88;1.45;;;24.00;91.10;;;;;;6214277;23;20036;-47
2022/05/20 02:03:00;;;;;;;3.00;1.70;;;23.80;91.20;;;;;;6214283;23;20507;-46
2022/05/20 02:05:36;;;;;;;3.78;1.63;;;23.60;91.20;;;;;;6214471;23;20053;-47
2022/05/20 02:08:07;;;;;;;2.70;1.70;;;23.70;57.40;;;;;;6214592;23;20000;-47
2022/05/20 02:10:59;;;;;;;3.40;1.63;;;23.20;91.20;;;;;;6214664;23;20000;-47
2022/05/20 02:13:29;;;;;;;4.78;1.85;;;23.80;75.60;;;;;;6214639;23;20003;-46
2022/05/20 02:16:07;;;;;;;2.10;1.60;;;24.00;91.50;;;;;;6214235;23;20087;-46
2022/05/20 02:18:43;;;;;;;2.55;2.00;;;23.60;91.30;;;;;;6214231;23;20459;-47
2022/05/20 02:21:17;;;;;;;2.72;1.70;;;24.00;91.20;;;;;;6214636;23;19999;-46
2022/05/20 02:23:50;;;;;;;3.33;2.17;;;23.50;77.30;;;;;;6214908;23;20000;-46
2022/05/20 02:26:19;;;;;;;2.88;1.85;;;23.80;91.50;;;;;;6214178;23;20021;-46
2022/05/20 02:28:54;;;;;;;1.98;1.77;;;24.10;57.70;;;;;;6224433;23;20001;-46
2022/05/20 02:31:25;;;;;;;2.33;1.52;;;23.70;57.40;;;;;;6214646;23;20000;-46
2022/05/20 02:33:51;;;;;;;3.17;1.60;;;23.60;91.10;;;;;;6215346;23;20321;-47
2022/05/20 02:36:28;;;;;;;2.22;1.67;;;23.20;91.20;;;;;;6216484;23;19997;-46
2022/05/20 02:38:54;;;;;;;2.55;1.42;;;24.00;87.60;;;;;;6216411;23;20035;-47
2022/05/20 02:41:19;;;;;;;3.15;1.88;;;23.90;91.30;;;;;;6216406;23;20022;-47
2022/05/20 02:43:45;;;;;;;4.35;2.00;;;23.10;91.00;;;;;;6216534;23;20096;-59
2022/05/20 02:46:12;;;;;;;3.38;2.15;;;23.60;57.20;;;;;;6215913;23;20072;-59
2022/05/20 02:48:38;;;;;;;2.47;1.55;;;23.60;91.10;;;;;;6216351;23;20001;-59
2022/05/20 02:51:03;;;;;;;2.70;1.60;;;23.80;91.20;;;;;;6216361;23;20371;-59
2022/05/20 02:53:29;;;;;;;4.75;1.98;;;23.70;91.20;;;;;;6216251;23;20001;-59
2022/05/20 02:55:55;;;;;;;4.03;1.98;;;23.80;91.20;;;;;;6216285;23;20448;-59
2022/05/20 03:04:10;;;;;;;2.88;1.83;;;23.60;91.30;;;;;;6225840;23;20028;-59
2022/05/20 03:06:51;;;;;;;1.70;1.52;;;23.80;73.70;;;;;;6216251;23;20040;-59
2022/05/20 03:09:22;;;;;;;4.55;1.88;;;23.80;77.90;;;;;;6216294;23;20016;-59
2022/05/20 03:11:48;;;;;;;2.03;1.83;;;23.60;91.20;;;;;;6216268;23;19993;-60
2022/05/20 03:14:17;;;;;;;3.85;1.75;;;23.50;91.10;;;;;;6216189;23;20054;-59
2022/05/20 03:16:43;;;;;;;2.08;1.60;;;;;;;;;;6216101;23;20019;-59
2022/05/20 03:19:09;;;;;;;2.10;1.77;;;23.60;56.00;;;;;;6215676;23;20015;-59
2022/05/20 03:21:36;;;;;;;2.47;1.60;;;23.40;91.10;;;;;;6216096;23;19993;-59
2022/05/20 03:24:02;;;;;;;2.17;1.75;;;;;;;;;;6216009;23;20024;-59
2022/05/20 03:26:29;;;;;;;1.90;1.70;;;23.50;57.20;;;;;;6215912;23;20055;-59
2022/05/20 03:28:55;;;;;;;2.63;1.80;;;23.70;91.20;;;;;;6216051;23;20375;-59
2022/05/20 03:31:21;;;;;;;3.88;1.77;;;23.60;63.10;;;;;;6215982;23;20356;-59
2022/05/20 03:33:46;;;;;;;3.17;1.92;;;23.80;69.10;;;;;;6215929;23;20020;-59
2022/05/20 03:36:14;;;;;;;3.58;1.90;;;23.60;57.20;;;;;;6215940;23;19996;-59
2022/05/20 03:38:39;;;;;;;3.60;1.48;;;23.70;91.20;;;;;;6215801;23;20009;-47
2022/05/20 03:41:05;;;;;;;7.00;2.33;;;23.60;91.30;;;;;;6215900;23;20005;-46
2022/05/20 03:43:33;;;;;;;2.72;1.73;;;23.70;91.40;;;;;;6215319;23;20001;-47
2022/05/20 03:46:00;;;;;;;2.40;2.08;;;23.50;56.80;;;;;;6215677;23;20380;-46
2022/05/20 03:48:26;;;;;;;2.42;1.85;;;23.40;91.30;;;;;;6215342;23;20000;-47
2022/05/20 03:50:51;;;;;;;2.08;1.70;;;23.70;91.50;;;;;;6215850;23;20035;-47
2022/05/20 03:53:18;;;;;;;2.78;1.80;;;23.80;91.50;;;;;;6215324;23;19997;-46
2022/05/20 03:55:43;;;;;;;2.30;2.03;;;23.80;91.50;;;;;;6215756;23;20320;-47
2022/05/20 03:58:10;;;;;;;2.60;2.38;;;23.20;91.40;;;;;;6215582;23;20012;-46
2022/05/20 04:01:56;;;;;;;3.33;2.40;;;;;;;;;;6225360;23;20028;-46
2022/05/20 04:03:22;;;;;;;3.78;2.10;;;23.70;91.50;;;;;;6214895;23;20048;-47
2022/05/20 04:05:47;;;;;;;3.08;2.13;;;23.00;91.30;;;;;;6215207;23;20088;-47
2022/05/20 04:08:13;;;;;;;3.13;1.98;;;23.60;91.50;;;;;;6215602;23;20032;-47
2022/05/20 04:10:39;;;;;;;3.08;2.30;;;;;;;;;;6215493;23;19993;-48
2022/05/20 04:13:05;;;;;;;4.22;2.10;;;23.70;73.90;;;;;;6225380;23;20004;-47
2022/05/20 04:15:31;;;;;;;3.33;2.33;;;;;;;;;;6215507;23;20000;-47
2022/05/20 04:17:57;;;;;;;3.42;2.30;;;23.50;91.40;;;;;;6215318;23;20012;-47
2022/05/20 04:20:23;;;;;;;2.95;2.33;;;;;;;;;;6215453;23;20007;-48
2022/05/20 04:22:49;;;;;;;3.42;2.70;;;23.00;91.30;;;;;;6215367;23;20000;-46
2022/05/20 04:25:15;;;;;;;2.95;2.28;;;;;;;;;;6215432;23;20451;-46
2022/05/20 04:27:41;;;;;;;3.95;2.47;;;;;;;;;;6215380;23;20001;-47
2022/05/20 04:30:08;;;;;;;3.13;2.53;;;23.40;57.20;;;;;;6215041;23;20151;-47
2022/05/20 04:32:33;;;;;;;3.33;2.88;;;23.70;91.50;;;;;;6215535;23;20073;-46
2022/05/20 04:34:59;;;;;;;3.97;2.65;;;23.40;91.40;;;;;;6214992;23;20007;-47
2022/05/20 04:37:25;;;;;;;4.65;3.25;;;23.40;86.40;;;;;;6214926;23;20007;-47
2022/05/20 04:39:51;;;;;;;3.25;2.92;;;;;;;;;;6215315;23;20031;-48
2022/05/20 04:47:46;;;;;;;3.50;3.20;;;23.70;88.00;;;;;;6224981;23;20379;-47
2022/05/20 04:50:12;;;;;;;3.75;3.00;;;;;;;;;;6215002;23;19997;-47
2022/05/20 04:52:38;;;;;;;3.90;2.90;;;;;;;;;;6215100;23;20001;-47
2022/05/20 04:55:05;;;;;;;3.53;3.22;;;23.30;57.40;;;;;;6215091;23;20075;-47
2022/05/20 04:57:47;;;;;;;3.85;2.92;;;23.40;91.40;;;;;;6214178;23;19997;-47
2022/05/20 05:00:20;;;;;;;4.20;3.22;;;23.50;79.00;;;;;;6215235;23;20302;-46
2022/05/20 05:02:47;;;;;;;5.25;3.40;;;24.90;58.50;;;;;;6214673;23;20001;-47
2022/05/20 05:05:16;;;;;;;3.95;3.03;;;22.90;79.50;;;;;;6214560;23;20395;-47
2022/05/20 05:07:44;;;;;;;4.13;3.28;;;23.00;91.70;;;;;;6215118;23;20000;-46
2022/05/20 05:10:12;;;;;;;3.78;3.35;;;23.50;91.80;;;;;;6215151;23;20019;-46
2022/05/20 05:12:37;;;;;;;5.60;3.42;;;23.50;91.80;;;;;;6214961;23;19997;-46
2022/05/20 05:15:05;;;;;;;4.97;3.63;;;23.10;91.70;;;;;;6188453;23;20028;-47
2022/05/20 05:20:20;;;;;;;4.57;3.03;;;23.00;91.60;;;;;;6224830;23;20015;-47
2022/05/20 05:22:47;;;;;;;5.72;3.88;;;23.40;91.70;;;;;;6214622;23;20502;-47
2022/05/20 05:25:14;;;;;;;4.50;4.00;;;;;;;;;;6214717;23;20100;-47
2022/05/20 05:27:40;;;;;;;4.30;2.60;;;23.30;91.90;;;;;;6214573;23;20369;-47
2022/05/20 05:30:07;;;;;;;5.18;4.13;;;23.60;91.80;;;;;;6214743;23;20036;-49
2022/05/20 05:32:34;;;;;;;6.07;4.90;;;23.30;58.40;;;;;;6214615;23;19997;-47
2022/05/20 05:35:01;;;;;;;6.32;4.22;;;;;;;;;;6214782;23;20072;-47
2022/05/20 05:37:26;;;;;;;4.90;3.85;;;;;;;;;;6214775;23;20365;-47
2022/05/20 05:39:53;;;;;;;5.00;3.22;;;;;;;;;;6214718;23;20009;-47
2022/05/20 05:42:20;;;;;;;3.90;3.42;;;;;;;;;;6214748;23;20063;-47
2022/05/20 05:44:46;;;;;;;4.50;3.67;;;;;;;;;;6214473;23;20483;-47
2022/05/20 05:47:12;;;;;;;8.95;3.17;;;;;;;;;;6214572;23;20012;-48
2022/05/20 05:49:38;;;;;;;3.58;3.13;;;;;;;;;;6214745;23;20012;-47
2022/05/20 05:52:04;;;;;;;2.90;2.08;;;23.60;91.80;;;;;;6214298;23;20043;-47
2022/05/20 05:54:32;;;;;;;4.65;3.40;;;23.10;91.70;;;;;;6214439;23;20001;-47
2022/05/20 05:56:58;;;;;;;6.50;3.58;;;23.30;91.90;;;;;;6214276;23;19993;-47
2022/05/20 05:59:23;;;;;;;3.45;2.97;;;23.20;92.10;;;;;;6214585;23;20060;-47
2022/05/20 06:01:49;;;;;;;4.45;3.13;;;;;;;;;;6214561;23;20004;-47
2022/05/20 06:04:15;;;;;;;4.47;2.55;;;;;;;;;;6214239;23;20020;-47
2022/05/20 06:06:41;;;;;;;5.13;3.45;;;23.50;92.10;;;;;;6214706;23;20004;-47
2022/05/20 06:09:07;;;;;;;5.78;3.00;;;23.00;73.10;;;;;;6216431;23;20004;-47
2022/05/20 06:11:33;;;;;;;3.10;2.80;;;;;;;;;;6216432;23;20000;-47
2022/05/20 06:13:58;;;;;;;4.03;3.00;;;;;;;;;;6216240;23;20047;-47
2022/05/20 06:16:24;;;;;;;6.00;3.08;;;;;;;;;;6216541;23;20075;-47
2022/05/20 06:18:51;;;;;;;3.45;2.20;;;;;;;;;;6216071;23;20028;-48
2022/05/20 06:21:17;;;;;;;3.22;2.22;;;;;;;;;;6216379;23;20005;-49
2022/05/20 06:23:43;;;;;;;5.13;1.92;;;23.30;90.50;;;;;;6216335;23;20079;-48
2022/05/20 06:26:09;;;;;;;5.20;2.47;;;;;;;;;;6216152;23;20090;-48
2022/05/20 06:28:35;;;;;;;4.35;2.78;;;;;;;;;;6215673;23;20005;-49
2022/05/20 06:31:01;;;;;;;4.30;2.83;;;;;;;;;;6215960;23;20336;-50
2022/05/20 06:33:27;;;;;;;3.50;2.30;;;23.50;77.50;;;;;;6215536;23;19996;-49
2022/05/20 06:41:21;;;;;;;4.15;2.22;;;23.30;91.20;;;;;;6225994;23;20008;-50
2022/05/20 06:43:47;;;;;;;4.88;1.85;;;23.70;85.40;;;;;;6215787;23;19997;-49
2022/05/20 06:46:13;;;;;;;1.95;1.52;;;;;;;;;;6216284;23;20011;-49
2022/05/20 06:48:43;;;;;;;3.10;1.40;;;24.00;55.70;;;;;;6216401;23;19997;-49
2022/05/20 06:51:10;;;;;;;2.63;1.52;;;23.60;57.40;;;;;;6216195;23;20020;-50
2022/05/20 06:53:36;;;;;;;1.52;1.40;;;;;;;;;;6216166;23;20368;-48
2022/05/20 06:56:02;;;;;;;2.03;1.42;;;;;;;;;;6216068;23;20001;-48
2022/05/20 06:58:30;;;;;;;2.72;1.50;;;23.70;56.10;;;;;;6215998;23;20025;-48
2022/05/20 07:00:56;;;;;;;4.13;1.40;;;;;;;;;;6216169;23;20012;-48
2022/05/20 07:03:22;;;;;;;2.20;1.45;;;;;;;;;;6215729;23;20333;-50
2022/05/20 07:05:49;;;;;;;3.25;1.70;;;;;;;;;;6216301;23;20004;-50
2022/05/20 07:08:15;;;;;;;3.75;1.83;;;23.90;91.20;;;;;;6216109;23;20005;-50
2022/05/20 07:10:41;;;;;;;2.78;1.30;;;23.80;90.20;;;;;;6216154;23;20071;-48
2022/05/20 07:13:07;;;;;;;2.10;1.40;;;;;;;;;;6216085;23;20055;-49
2022/05/20 07:15:33;;;;;;;1.52;1.30;;;23.60;91.10;;;;;;6216157;23;20314;-49
2022/05/20 07:17:59;;;;;;;2.92;1.50;;;23.50;85.30;;;;;;6216102;23;20059;-49
2022/05/20 07:20:25;;;;;;;2.22;1.33;;;;;;;;;;6215571;23;20000;-50
2022/05/20 07:22:51;;;;;;;3.05;1.60;;;;;;;;;;6216087;23;19997;-50
2022/05/20 07:25:18;;;;;;;2.45;1.58;;;23.70;90.10;;;;;;6215948;23;20059;-51
2022/05/20 07:27:45;;;;;;;3.35;1.40;;;;;;;;;;6215901;23;20035;-50
2022/05/20 07:30:15;;;;;;;2.63;1.40;;;23.40;90.80;;;;;;6215496;23;20067;-51
2022/05/20 07:32:41;;;;;;;3.22;1.40;;;23.40;91.10;;;;;;6215879;23;20003;-50
2022/05/20 07:35:09;;;;;;;2.65;1.58;;;23.60;80.30;;;;;;6215517;23;20076;-49
2022/05/20 07:37:35;;;;;;;2.95;1.48;;;23.40;72.60;;;;;;6215686;23;20003;-49
2022/05/20 07:40:01;;;;;;;3.67;1.67;;;;;;;;;;6215505;23;20000;-51
2022/05/20 07:42:27;;;;;;;3.85;1.15;;;23.50;73.70;;;;;;6225466;23;19997;-48
2022/05/20 07:44:53;;;;;;;1.77;1.13;;;;;;;;;;6215478;23;20120;-49
2022/05/20 07:47:20;;;;;;;3.08;1.35;;;;;;;;;;6215655;23;20384;-48
2022/05/20 07:49:46;;;;;;;1.45;1.00;;;23.70;90.80;;;;;;6215622;23;20009;-48
2022/05/20 07:52:13;;;;;;;2.63;1.20;;;23.50;90.60;;;;;;6215659;23;19997;-48
2022/05/20 07:54:42;;;;;;;2.45;1.40;;;23.80;56.30;;;;;;6215746;23;20008;-47
2022/05/20 07:57:13;;;;;;;1.95;1.20;;;23.80;56.30;;;;;;6215738;23;20004;-47
2022/05/20 07:59:53;;;;;;;1.60;1.25;;;24.00;90.70;;;;;;6215604;23;20009;-48
2022/05/20 08:02:22;;;;;;;3.13;1.10;;;23.80;56.20;;;;;;6215567;23;20425;-48
2022/05/20 08:05:01;;;;;;;3.45;1.40;;;23.80;56.20;;;;;;6215139;23;20017;-48
2022/05/20 08:07:46;;;;;;;2.60;1.33;;;23.70;86.60;;;;;;6215632;23;20305;-48
2022/05/20 08:10:19;;;;;;;1.10;1.00;;;23.90;56.30;;;;;;6215318;23;20001;-48
2022/05/20 08:12:45;;;;;;;2.78;1.23;;;24.10;90.60;;;;;;6215243;23;20440;-47
2022/05/20 08:15:12;;;;;;;0.90;0.75;;;24.20;90.40;;;;;;6215201;23;19996;-48
2022/05/20 08:17:40;;;;;;;2.60;1.05;;;;;;;;;;6214955;23;20083;-48
2022/05/20 08:20:09;;;;;;;1.60;1.23;;;24.00;90.60;;;;;;6215554;23;20383;-47
2022/05/20 08:22:35;;;;;;;1.77;1.10;;;23.70;57.20;;;;;;6215081;23;20486;-47
2022/05/20 08:25:01;;;;;;;2.20;1.10;;;24.00;90.30;;;;;;6214993;23;20448;-49
2022/05/20 08:27:29;;;;;;;5.25;1.30;;;24.00;55.40;;;;;;6215250;23;20000;-48
2022/05/20 08:29:56;;;;;;;1.83;1.13;;;23.50;90.10;;;;;;6215089;23;20001;-48
2022/05/20 08:32:22;;;;;;;4.65;1.27;;;24.10;90.30;;;;;;6214454;23;20072;-48
2022/05/20 08:34:48;;;;;;;2.67;1.25;;;;;;;;;;6225055;23;19997;-50
2022/05/20 08:37:16;;;;;;;1.42;1.20;;;24.20;90.10;;;;;;6215433;23;20001;-48
2022/05/20 08:39:42;;;;;;;1.58;1.00;;;23.60;89.80;;;;;;6215218;23;20008;-48
2022/05/20 08:42:20;;;;;;;1.95;1.00;;;24.20;89.90;;;;;;6214917;23;20000;-47
2022/05/20 08:44:46;;;;;;;1.55;0.73;;;23.80;55.10;;;;;;6214876;23;20032;-48
2022/05/20 08:47:21;;;;;;;1.65;1.15;;;24.00;90.00;;;;;;6215093;23;20000;-48
2022/05/20 08:49:47;;;;;;;1.77;0.60;;;23.10;54.10;;;;;;6214599;23;20087;-48
2022/05/20 08:52:13;;;;;;;3.42;0.93;;;24.20;90.00;;;;;;6214977;23;20024;-48
2022/05/20 08:54:41;;;;;;;2.65;1.10;;;24.00;55.00;;;;;;6214537;23;20001;-48
2022/05/20 08:57:24;;;;;;;1.65;0.98;;;23.80;59.20;;;;;;6214901;23;20071;-47
2022/05/20 08:59:50;;;;;;;1.58;0.85;;;24.20;86.10;;;;;;6214786;23;20005;-48
2022/05/20 09:02:16;;;;;;;2.70;0.77;;;23.50;89.60;;;;;;6214842;23;20054;-48
2022/05/20 09:04:41;;;;;;;1.77;1.00;;;24.30;66.30;;;;;;6205038;23;20013;-48
2022/05/20 09:07:14;;;;;;;1.20;0.77;;;23.90;89.20;;;;;;6211561;23;20408;-47
2022/05/20 09:09:43;;;;;;;4.97;0.90;;;24.10;54.80;;;;;;6214509;23;20008;-49
2022/05/20 09:12:10;;;;;;;1.60;0.93;;;24.20;71.00;;;;;;6214546;23;19993;-48
2022/05/20 09:17:23;;;;;;;0.80;0.80;;;24.30;89.50;;;;;;6224790;23;20011;-48
2022/05/20 09:20:01;;;;;;;1.35;0.80;;;24.20;80.20;;;;;;6214854;23;20005;-48
2022/05/20 09:22:32;;;;;;;2.60;0.90;;;24.30;67.60;;;;;;6214900;23;20008;-48
2022/05/20 09:24:58;;;;;;;2.00;1.17;;;24.00;89.10;;;;;;6214929;23;20071;-48
2022/05/20 09:27:31;;;;;;;1.33;0.80;;;24.40;89.80;;;;;;6215044;23;20380;-48
2022/05/20 09:30:05;;;;;;;1.92;0.90;;;24.10;53.20;;;;;;6214771;23;20001;-48
2022/05/20 09:32:36;;;;;;;3.42;1.08;;;24.20;66.00;;;;;;6214937;23;20393;-48
2022/05/20 09:35:19;;;;;;;2.05;1.00;;;24.10;53.10;;;;;;6214504;23;20001;-49
2022/05/20 09:37:47;;;;;;;2.47;1.15;;;24.10;54.60;;;;;;6214692;23;20021;-48
2022/05/20 09:40:47;;;;;;;2.58;1.23;;;24.10;89.30;;;;;;6214282;23;20000;-49
2022/05/20 09:43:22;;;;;;;1.30;0.80;;;23.90;88.90;;;;;;6212398;23;20436;-50
2022/05/20 09:45:49;;;;;;;2.20;1.00;;;24.20;89.40;;;;;;6214770;23;20011;-49
2022/05/20 09:48:41;;;;;;;2.55;1.02;;;23.60;89.10;;;;;;6214324;23;20024;-49
2022/05/20 09:51:33;;;;;;;2.20;1.33;;;24.40;68.80;;;;;;6224485;23;20001;-49
2022/05/20 09:54:34;;;;;;;4.18;1.17;;;24.10;53.10;;;;;;6214193;23;20086;-48
2022/05/20 09:57:04;;;;;;;1.38;0.73;;;24.00;89.40;;;;;;6214320;23;20440;-49
2022/05/20 09:59:43;;;;;;;1.67;0.77;;;24.10;52.80;;;;;;6224305;23;20009;-49
2022/05/20 10:02:20;;;;;;;1.92;1.05;;;24.10;52.90;;;;;;6214413;23;20000;-48
2022/05/20 10:04:46;;;;;;;1.30;1.00;;;;;;;;;;6213997;23;20013;-48
2022/05/20 10:07:17;;;;;;;1.08;0.68;;;24.10;54.70;;;;;;6214121;23;20016;-49
2022/05/20 10:09:48;;;;;;;4.45;1.35;;;24.10;54.50;;;;;;6214088;23;20004;-49
2022/05/20 10:12:32;;;;;;;2.75;1.08;;;24.20;62.90;;;;;;6214583;23;20032;-48
2022/05/20 10:14:59;;;;;;;4.38;0.93;;;;;;;;;;6224033;23;19997;-48
2022/05/20 10:17:24;;;;;;;2.33;1.10;;;;;;;;;;6214305;23;20408;-49
2022/05/20 10:20:12;;;;;;;2.17;0.77;;;24.10;52.80;;;;;;6213900;23;20035;-48
2022/05/20 10:23:13;;;;;;;4.18;1.20;;;24.10;52.80;;;;;;6214700;23;20356;-48
2022/05/20 10:25:51;;;;;;;2.20;0.93;;;23.90;82.60;;;;;;6188273;23;20070;-47
2022/05/20 10:32:34;;;;;;;1.42;0.90;;;24.40;77.60;;;;;;6214571;23;20079;-48
2022/05/20 10:34:14;;;;;;;2.15;0.82;;;23.90;72.10;;;;;;6214283;23;20067;-48
2022/05/20 10:37:07;;;;;;;2.90;0.90;;;24.20;89.70;;;;;;6214439;23;20008;-48
2022/05/20 10:39:45;;;;;;;1.35;0.90;;;23.60;67.50;;;;;;6214285;23;20012;-48
2022/05/20 10:42:36;;;;;;;1.73;0.98;;;24.10;53.00;;;;;;6214364;23;19997;-48
2022/05/20 10:48:35;;;;;;;1.75;0.75;;;24.10;53.00;;;;;;6223987;23;20012;-49
2022/05/20 10:51:37;;;;;;;3.83;1.08;;;24.30;58.10;;;;;;6214259;23;20028;-46
2022/05/20 10:54:30;;;;;;;1.35;1.10;;;24.60;56.70;;;;;;6214053;23;20427;-46
2022/05/20 10:56:55;;;;;;;2.47;1.15;;;24.20;90.00;;;;;;6216270;23;20005;-47
2022/05/20 10:59:24;;;;;;;1.52;0.77;;;23.90;84.20;;;;;;6216136;23;20013;-57
2022/05/20 11:02:04;;;;;;;1.38;0.68;;;24.10;90.10;;;;;;6215980;23;20027;-57
2022/05/20 11:04:47;;;;;;;2.58;1.20;;;24.30;90.30;;;;;;6215826;23;20008;-57
2022/05/20 11:07:16;;;;;;;1.33;0.80;;;24.20;90.40;;;;;;6216025;23;20001;-57
2022/05/20 11:09:56;;;;;;;3.58;1.00;;;24.20;90.20;;;;;;6216151;23;20087;-56
2022/05/20 11:12:51;;;;;;;1.98;0.82;;;24.20;90.30;;;;;;6216116;23;19997;-57
2022/05/20 11:15:26;;;;;;;1.85;1.02;;;23.90;61.00;;;;;;6215750;23;20005;-56
2022/05/20 11:17:54;;;;;;;1.73;0.77;;;;;;;;;;6215654;23;20005;-46
2022/05/20 11:20:48;;;;;;;2.95;0.75;;;24.20;76.10;;;;;;6216056;23;20435;-46
2022/05/20 11:23:42;;;;;;;0.95;0.85;;;24.40;90.30;;;;;;6215711;23;20428;-47
2022/05/20 11:26:36;;;;;;;1.20;1.10;;;23.80;90.10;;;;;;6216032;23;20062;-47
2022/05/20 11:29:02;;;;;;;2.75;1.00;;;;;;;;;;6215602;23;19996;-46
2022/05/20 11:31:44;;;;;;;1.15;0.88;;;24.20;90.20;;;;;;6215776;23;20005;-47
2022/05/20 11:34:38;;;;;;;3.08;1.02;;;24.50;90.30;;;;;;6215563;23;20000;-48
2022/05/20 11:37:24;;;;;;;1.85;1.00;;;24.40;87.70;;;;;;6215986;23;20001;-48
2022/05/20 11:40:22;;;;;;;1.52;0.98;;;23.70;90.00;;;;;;6215439;23;20012;-46
2022/05/20 11:43:38;;;;;;;3.28;1.00;;;23.90;62.50;;;;;;6108224;23;20090;-47
2022/05/20 11:46:26;;;;;;;1.90;1.20;;;24.00;53.60;;;;;;6148994;23;20000;-47
2022/05/20 11:48:54;;;;;;;1.60;0.90;;;24.40;90.20;;;;;;6215888;23;20004;-48
2022/05/20 11:51:40;;;;;;;2.08;1.17;;;24.30;90.30;;;;;;6215306;23;20416;-46
2022/05/20 11:54:28;;;;;;;2.17;1.10;;;23.90;62.10;;;;;;6215927;23;20031;-46
2022/05/20 11:56:58;;;;;;;4.45;1.25;;;24.10;78.30;;;;;;6215783;23;19993;-48
2022/05/20 11:59:38;;;;;;;1.85;0.98;;;24.30;87.30;;;;;;6215578;23;20005;-46
2022/05/20 12:02:08;;;;;;;1.33;0.70;;;23.80;90.20;;;;;;6215388;23;20459;-48
2022/05/20 12:04:35;;;;;;;1.40;0.82;;;24.30;90.50;;;;;;6215161;23;20008;-48
2022/05/20 12:07:11;;;;;;;1.10;1.00;;;24.30;90.20;;;;;;6215207;23;19996;-49
2022/05/20 12:09:43;;;;;;;1.95;0.90;;;24.20;54.30;;;;;;6215629;23;20024;-48
2022/05/20 12:12:34;;;;;;;1.40;1.17;;;24.50;90.40;;;;;;6215339;23;19993;-50
2022/05/20 12:15:07;;;;;;;1.33;0.98;;;24.10;90.40;;;;;;6215286;23;20447;-50
2022/05/20 12:17:42;;;;;;;2.03;1.20;;;24.20;90.40;;;;;;6225308;23;20451;-50
2022/05/20 12:26:11;;;;;;;2.85;0.90;;;26.80;57.20;;;;;;6225564;23;20015;-48
2022/05/20 12:28:39;;;;;;;4.28;1.10;;;24.50;55.60;;;;;;6195857;23;20423;-49
2022/05/20 12:31:31;;;;;;;2.00;0.88;;;24.50;54.30;;;;;;6215538;23;20339;-48
2022/05/20 12:33:59;;;;;;;1.23;0.93;;;;;;;;;;6215437;23;20032;-49
2022/05/20 12:36:30;;;;;;;3.33;1.10;;;24.60;54.50;;;;;;6215281;23;20068;-49
2022/05/20 12:39:08;;;;;;;3.30;1.05;;;25.10;55.00;;;;;;6215292;23;20091;-49
2022/05/20 12:41:34;;;;;;;1.75;0.98;;;;;;;;;;6214891;23;20424;-48
2022/05/20 12:44:20;;;;;;;1.30;0.80;;;24.50;90.40;;;;;;6215299;23;20028;-49
2022/05/20 12:46:45;;;;;;;0.90;0.77;;;24.60;90.50;;;;;;6214888;23;20439;-49
2022/05/20 12:49:12;;;;;;;1.02;0.80;;;25.00;90.50;;;;;;6215391;23;20001;-48
2022/05/20 12:51:45;;;;;;;1.98;1.10;;;24.60;90.10;;;;;;6224931;23;20139;-48
2022/05/20 12:54:18;;;;;;;5.68;1.23;;;24.40;59.80;;;;;;6215276;23;19996;-51
2022/05/20 12:56:43;;;;;;;1.20;1.05;;;24.70;80.60;;;;;;6215175;23;20305;-49
2022/05/20 12:59:21;;;;;;;2.08;0.93;;;25.00;90.70;;;;;;6215088;23;20012;-48
2022/05/20 13:01:58;;;;;;;2.20;1.05;;;24.60;56.10;;;;;;6214984;23;20019;-49
2022/05/20 13:04:27;;;;;;;1.27;0.73;;;24.80;56.20;;;;;;6187898;23;20352;-49
2022/05/20 13:06:53;;;;;;;2.38;1.10;;;;;;;;;;6215096;23;20064;-48
2022/05/20 13:09:28;;;;;;;2.00;1.10;;;25.00;71.00;;;;;;6215134;23;20004;-48
2022/05/20 13:11:54;;;;;;;2.45;0.80;;;;;;;;;;6215013;23;20063;-49
2022/05/20 13:14:25;;;;;;;2.33;1.00;;;24.90;80.60;;;;;;6215078;23;20436;-49
2022/05/20 13:16:58;;;;;;;2.67;1.25;;;24.90;56.10;;;;;;6214768;23;20019;-50
2022/05/20 13:19:38;;;;;;;1.90;1.20;;;25.30;90.40;;;;;;6214583;23;20016;-49
2022/05/20 13:22:06;;;;;;;3.72;0.93;;;25.40;68.90;;;;;;6213336;23;20316;-49
2022/05/20 13:24:36;;;;;;;1.20;1.00;;;25.10;90.50;;;;;;6214388;23;20336;-48
2022/05/20 13:27:09;;;;;;;2.20;0.95;;;24.80;90.30;;;;;;6214988;23;19993;-48
2022/05/20 13:29:36;;;;;;;1.13;1.02;;;25.30;61.60;;;;;;6214491;23;20003;-49
2022/05/20 13:32:15;;;;;;;10.65;1.10;;;25.30;55.90;;;;;;6214862;23;19992;-48
2022/05/20 13:34:43;;;;;;;1.37;0.80;;;25.30;90.80;;;;;;6214943;23;20000;-49
2022/05/20 13:37:12;;;;;;;5.25;0.95;;;25.10;73.90;;;;;;6214764;23;20024;-48
2022/05/20 13:39:38;;;;;;;2.75;1.13;;;25.00;55.60;;;;;;6214359;23;20059;-49
2022/05/20 13:42:10;;;;;;;3.72;1.23;;;25.10;90.90;;;;;;6214411;23;19997;-48
2022/05/20 13:44:40;;;;;;;2.13;1.00;;;25.20;90.70;;;;;;6215117;23;20035;-60
2022/05/20 13:49:51;;;;;;;2.05;0.90;;;25.30;90.60;;;;;;6226537;23;20071;-59
2022/05/20 13:52:17;;;;;;;3.72;1.25;;;;;;;;;;6215360;23;20035;-59
2022/05/20 13:54:51;;;;;;;1.00;0.77;;;25.00;59.30;;;;;;6214930;23;20030;-59
2022/05/20 13:57:33;;;;;;;5.05;0.70;;;25.00;88.60;;;;;;6224428;23;20067;-59
2022/05/20 14:00:05;;;;;;;2.85;1.33;;;25.10;56.00;;;;;;6214836;23;20017;-57
2022/05/20 14:02:38;;;;;;;1.00;0.85;;;25.30;65.70;;;;;;6214692;23;20496;-58
2022/05/20 14:05:27;;;;;;;2.45;1.02;;;24.90;90.60;;;;;;6214219;23;20009;-59
2022/05/20 14:07:57;;;;;;;2.08;0.98;;;25.10;56.40;;;;;;6215002;23;19996;-59